Portada
METAR-TAF:

METAR-TAF

Aeropuertos :

Holland, Míchigan, Estados Unidos

latitud: 42-44-46N, longitud: 086-05-48W, altitud: 209 m

Observación

El informe se hizo hace 27 minutos, a las 19:53 UTC
Viento 8 kt del oeste-suroeste
Temperatura 33°C
Humedad 41%
Presión 1024 hPa
Visibilidad: 16.1 km
Nubes dispersas a una altura de 9500 ft

METAR: KBIV 191953Z AUTO 25008KT 10SM SCT095 33/18 A3023 RMK AO2 SLP231 T03330178

Hora: 16:20 (20:20 UTC)


TAF: falta

Observaciones y pronósticos meteorológicos de más de 4000 aeropuertos (mensajes METAR y TAF).

Los puntos amarillos y rojos representan las estaciones disponibles.

Ponga el ratón en el punto deseado para ver el nombre de la estación.

Haga clic para ver las observaciones y los pronósticos meteorológicos.

Para cambiar el mapa : haga clic en los botones verdes con una cruz de color negro para hacer un zoom, en el botón verde con un guión para alejar o en las flechas verdes para mapas adyacentes.


METAR-TAF: